createdAt,value
2019-05-28T00:00:46.730Z,3.20
2019-05-28T00:03:12.579Z,2.87
2019-05-28T00:05:38.415Z,3.57
2019-05-28T00:08:04.685Z,3.90
2019-05-28T00:10:30.528Z,5.83
2019-05-28T00:12:56.410Z,3.60
2019-05-28T00:15:22.263Z,5.37
2019-05-28T00:17:48.106Z,4.67
2019-05-28T00:20:14.152Z,4.30
2019-05-28T00:22:39.996Z,4.80
2019-05-28T00:25:06.431Z,4.30
2019-05-28T00:27:32.300Z,3.40
2019-05-28T00:29:58.159Z,3.67
2019-05-28T00:32:23.998Z,3.30
2019-05-28T00:34:49.889Z,3.60
2019-05-28T00:37:15.728Z,3.50
2019-05-28T00:39:41.607Z,3.67
2019-05-28T00:42:07.474Z,3.53
2019-05-28T00:44:33.303Z,3.90
2019-05-28T00:46:59.138Z,3.23
2019-05-28T00:49:25.022Z,3.70
2019-05-28T00:51:50.963Z,3.97
2019-05-28T00:54:17.220Z,3.57
2019-05-28T00:56:43.224Z,3.47
2019-05-28T00:59:09.379Z,3.60
2019-05-28T01:01:35.215Z,3.73
2019-05-28T01:04:01.071Z,4.00
2019-05-28T01:06:26.939Z,4.00
2019-05-28T01:08:52.793Z,3.27
2019-05-28T01:11:18.655Z,3.90
2019-05-28T01:13:44.498Z,3.87
2019-05-28T01:16:10.453Z,3.33
2019-05-28T01:18:36.294Z,3.77
2019-05-28T01:21:02.129Z,3.90
2019-05-28T01:23:27.969Z,3.90
2019-05-28T01:25:53.811Z,4.30
2019-05-28T01:28:19.695Z,4.17
2019-05-28T01:30:56.209Z,4.27
2019-05-28T01:33:13.376Z,4.10
2019-05-28T01:35:39.203Z,5.20
2019-05-28T01:38:08.211Z,4.80
2019-05-28T01:40:32.837Z,4.70
2019-05-28T01:42:58.698Z,4.97
2019-05-28T01:45:24.553Z,4.70
2019-05-28T01:47:50.433Z,3.70
2019-05-28T01:50:16.377Z,4.37
2019-05-28T01:52:42.273Z,4.30
2019-05-28T01:55:08.419Z,4.93
2019-05-28T01:57:34.252Z,5.70
2019-05-28T02:00:00.141Z,5.17
2019-05-28T02:02:26.066Z,4.97
2019-05-28T02:04:52.105Z,5.47
2019-05-28T02:07:18.095Z,5.70
2019-05-28T02:09:43.964Z,5.30
2019-05-28T02:12:09.791Z,6.17
2019-05-28T02:14:35.624Z,5.17
2019-05-28T02:17:01.551Z,5.43
2019-05-28T02:19:27.440Z,5.57
2019-05-28T02:21:53.280Z,5.73
2019-05-28T02:24:19.127Z,5.37
2019-05-28T02:26:44.982Z,6.13
2019-05-28T02:29:10.828Z,5.93
2019-05-28T02:31:36.685Z,5.80
2019-05-28T02:34:02.608Z,4.87
2019-05-28T02:36:28.470Z,4.20
2019-05-28T02:38:54.295Z,4.80
2019-05-28T02:41:20.321Z,4.80
2019-05-28T02:43:46.165Z,4.93
2019-05-28T02:46:12.014Z,5.27
2019-05-28T02:48:37.895Z,5.60
2019-05-28T02:51:03.946Z,5.20
2019-05-28T02:53:30.310Z,5.00
2019-05-28T02:55:56.634Z,5.00
2019-05-28T02:58:26.285Z,5.47
2019-05-28T03:00:52.818Z,6.00
2019-05-28T03:03:20.599Z,5.80
2019-05-28T03:05:47.761Z,5.20
2019-05-28T03:08:14.327Z,4.90
2019-05-28T03:13:08.119Z,5.50
2019-05-28T03:15:36.487Z,5.20
2019-05-28T03:18:02.867Z,5.10
2019-05-28T03:20:29.398Z,5.40
2019-05-28T03:22:55.362Z,5.50
2019-05-28T03:25:21.335Z,5.67
2019-05-28T03:27:47.355Z,5.73
2019-05-28T03:30:13.514Z,5.30
2019-05-28T03:32:39.409Z,5.83
2019-05-28T03:35:05.247Z,5.40
2019-05-28T03:37:31.109Z,5.70
2019-05-28T03:39:57.765Z,5.80
2019-05-28T03:42:23.650Z,5.60
2019-05-28T03:44:49.586Z,4.70
2019-05-28T03:47:15.424Z,5.80
2019-05-28T03:49:41.294Z,5.73
2019-05-28T03:52:07.119Z,6.17
2019-05-28T03:54:32.974Z,6.10
2019-05-28T03:56:58.828Z,6.40
2019-05-28T03:59:24.674Z,6.73
2019-05-28T04:01:50.513Z,6.63
2019-05-28T04:04:16.397Z,6.30
2019-05-28T04:06:42.221Z,6.30
2019-05-28T04:09:08.262Z,6.97
2019-05-28T04:11:44.327Z,7.07
2019-05-28T04:14:02.402Z,7.10
2019-05-28T04:16:28.251Z,6.60
2019-05-28T04:18:54.103Z,6.50
2019-05-28T04:21:20.049Z,7.40
2019-05-28T04:23:45.916Z,6.70
2019-05-28T04:26:11.755Z,6.60
2019-05-28T04:28:37.732Z,8.60
2019-05-28T04:31:03.596Z,9.10
2019-05-28T04:33:29.421Z,9.10
2019-05-28T04:35:55.261Z,9.77
2019-05-28T04:38:21.112Z,9.10
2019-05-28T04:40:46.960Z,9.90
2019-05-28T04:43:12.800Z,9.93
2019-05-28T04:45:38.654Z,10.77
2019-05-28T04:48:04.575Z,10.30
2019-05-28T04:50:30.408Z,10.13
2019-05-28T04:52:56.250Z,9.13
2019-05-28T04:55:22.199Z,10.03
2019-05-28T04:57:48.044Z,10.23
2019-05-28T05:00:14.283Z,10.30
2019-05-28T05:02:57.330Z,10.30
2019-05-28T05:05:08.108Z,9.37
2019-05-28T05:07:34.059Z,9.07
2019-05-28T05:09:59.907Z,10.70
2019-05-28T05:12:25.753Z,11.20
2019-05-28T05:14:51.587Z,9.33
2019-05-28T05:17:17.426Z,10.10
2019-05-28T05:19:43.374Z,9.00
2019-05-28T05:22:09.234Z,9.00
2019-05-28T05:24:35.063Z,8.77
2019-05-28T05:27:00.940Z,10.13
2019-05-28T05:29:26.765Z,9.27
2019-05-28T05:31:52.618Z,11.00
2019-05-28T05:34:18.477Z,9.50
2019-05-28T05:36:44.321Z,9.53
2019-05-28T05:39:10.267Z,9.30
2019-05-28T05:41:36.221Z,10.10
2019-05-28T05:44:02.248Z,10.70
2019-05-28T05:46:28.103Z,9.47
2019-05-28T05:48:53.946Z,9.53
2019-05-28T05:51:19.777Z,8.83
2019-05-28T05:53:45.652Z,9.37
2019-05-28T05:56:11.499Z,9.03
2019-05-28T05:58:37.349Z,9.20
2019-05-28T06:01:03.287Z,10.20
2019-05-28T06:03:39.747Z,9.30
2019-05-28T06:05:56.890Z,9.70
2019-05-28T06:08:22.702Z,8.67
2019-05-28T06:10:48.548Z,10.20
2019-05-28T06:13:14.398Z,9.10
2019-05-28T06:15:40.723Z,9.87
2019-05-28T06:18:06.628Z,9.00
2019-05-28T06:20:32.468Z,9.67
2019-05-28T06:22:58.332Z,9.40
2019-05-28T06:25:24.175Z,10.10
2019-05-28T06:27:50.033Z,10.27
2019-05-28T06:30:15.994Z,10.10
2019-05-28T06:32:41.849Z,9.60
2019-05-28T06:35:07.765Z,10.13
2019-05-28T06:37:33.615Z,10.83
2019-05-28T06:39:59.467Z,11.00
2019-05-28T06:42:25.316Z,11.60
2019-05-28T06:44:51.200Z,11.07
2019-05-28T06:47:17.139Z,12.37
2019-05-28T06:49:42.992Z,10.60
2019-05-28T06:52:08.859Z,9.37
2019-05-28T06:54:34.675Z,10.17
2019-05-28T06:57:00.928Z,9.83
2019-05-28T06:59:26.820Z,10.70
2019-05-28T07:01:52.653Z,9.27
2019-05-28T07:04:31.794Z,9.30
2019-05-28T07:06:46.263Z,9.80
2019-05-28T07:09:12.118Z,8.63
2019-05-28T07:11:37.946Z,11.13
2019-05-28T07:14:03.793Z,10.57
2019-05-28T07:16:29.625Z,10.93
2019-05-28T07:18:55.464Z,11.10
2019-05-28T07:21:21.332Z,12.27
2019-05-28T07:23:47.194Z,12.00
2019-05-28T07:26:13.004Z,11.60
2019-05-28T07:28:38.842Z,13.27
2019-05-28T07:31:04.695Z,12.50
2019-05-28T07:33:34.760Z,14.07
2019-05-28T07:35:58.400Z,11.53
2019-05-28T07:38:24.284Z,12.60
2019-05-28T07:40:50.189Z,13.30
2019-05-28T07:43:16.052Z,14.63
2019-05-28T07:45:41.891Z,14.07
2019-05-28T07:48:07.730Z,14.63
2019-05-28T07:50:33.594Z,15.27
2019-05-28T07:52:59.442Z,15.00
2019-05-28T07:55:25.293Z,15.80
2019-05-28T07:57:51.108Z,20.40
2019-05-28T08:00:20.773Z,15.13
2019-05-28T08:02:46.613Z,15.27
2019-05-28T08:05:16.903Z,17.07
2019-05-28T08:07:40.329Z,13.37
2019-05-28T08:10:07.649Z,16.00
2019-05-28T08:12:33.447Z,16.97
2019-05-28T08:14:59.284Z,15.83
2019-05-28T08:17:25.124Z,19.63
2019-05-28T08:19:51.065Z,14.93
2019-05-28T08:22:16.918Z,15.80
2019-05-28T08:24:42.742Z,14.43
2019-05-28T08:27:08.585Z,15.93
2019-05-28T08:29:34.527Z,15.83
2019-05-28T08:32:00.380Z,15.73
2019-05-28T08:34:26.210Z,15.00
2019-05-28T08:37:05.088Z,14.17
2019-05-28T08:39:20.044Z,15.90
2019-05-28T08:41:45.894Z,14.27
2019-05-28T08:44:11.886Z,16.40
2019-05-28T08:46:37.759Z,16.80
2019-05-28T08:49:03.701Z,15.30
2019-05-28T08:51:29.545Z,16.60
2019-05-28T08:53:55.403Z,15.20
2019-05-28T08:56:21.238Z,16.97
2019-05-28T08:58:47.068Z,14.27
2019-05-28T09:01:13.081Z,13.73
2019-05-28T09:03:38.955Z,13.43
2019-05-28T09:06:04.776Z,13.43
2019-05-28T09:08:39.238Z,15.67
2019-05-28T09:10:58.385Z,13.80
2019-05-28T09:13:24.257Z,14.37
2019-05-28T09:15:50.107Z,14.33
2019-05-28T09:18:15.953Z,13.90
2019-05-28T09:20:41.806Z,14.43
2019-05-28T09:23:07.678Z,14.17
2019-05-28T09:25:33.513Z,13.47
2019-05-28T09:27:59.343Z,13.87
2019-05-28T09:30:25.302Z,12.70
2019-05-28T09:32:51.265Z,12.87
2019-05-28T09:35:17.227Z,12.10
2019-05-28T09:37:43.060Z,12.40
2019-05-28T09:40:12.227Z,14.17
2019-05-28T09:42:38.211Z,12.60
2019-05-28T09:45:21.294Z,11.83
2019-05-28T09:47:32.282Z,10.70
2019-05-28T09:49:58.110Z,11.67
2019-05-28T09:52:23.973Z,13.20
2019-05-28T09:54:49.798Z,11.83
2019-05-28T09:57:15.620Z,10.23
2019-05-28T09:59:42.243Z,11.27
2019-05-28T10:02:08.281Z,10.70
2019-05-28T10:04:47.409Z,12.13
2019-05-28T10:07:01.920Z,10.30
2019-05-28T10:09:27.905Z,9.53
2019-05-28T10:11:53.880Z,9.37
2019-05-28T10:14:19.708Z,10.57
2019-05-28T10:16:48.586Z,9.53
2019-05-28T10:19:14.443Z,9.63
2019-05-28T10:21:40.260Z,8.40
2019-05-28T10:24:06.114Z,9.93
2019-05-28T10:26:32.041Z,9.63
2019-05-28T10:28:57.984Z,8.57
2019-05-28T10:31:23.826Z,9.80
2019-05-28T10:33:49.676Z,8.50
2019-05-28T10:36:32.178Z,8.33
2019-05-28T10:38:43.290Z,7.87
2019-05-28T10:41:09.143Z,7.23
2019-05-28T10:43:34.977Z,7.77
2019-05-28T10:46:00.890Z,8.90
2019-05-28T10:48:26.776Z,7.50
2019-05-28T10:50:52.609Z,6.73
2019-05-28T10:53:18.452Z,7.10
2019-05-28T10:55:44.291Z,6.77
2019-05-28T10:58:10.107Z,7.07
2019-05-28T11:00:35.967Z,7.10
2019-05-28T11:03:01.791Z,8.13
2019-05-28T11:05:27.725Z,6.97
2019-05-28T11:07:53.565Z,8.07
2019-05-28T11:10:24.092Z,6.90
2019-05-28T11:12:48.620Z,7.50
2019-05-28T11:15:14.914Z,6.80
2019-05-28T11:17:40.730Z,7.30
2019-05-28T11:20:07.463Z,6.77
2019-05-28T11:22:33.310Z,7.60
2019-05-28T11:24:59.135Z,6.53
2019-05-28T11:27:25.001Z,7.83
2019-05-28T11:29:50.840Z,7.27
2019-05-28T11:32:16.705Z,7.70
2019-05-28T11:34:42.541Z,7.30
2019-05-28T11:37:10.121Z,6.63
2019-05-28T11:39:36.115Z,6.90
2019-05-28T11:42:01.995Z,7.57
2019-05-28T11:44:27.832Z,6.67
2019-05-28T11:46:53.683Z,6.87
2019-05-28T11:49:19.513Z,5.70
2019-05-28T11:51:45.369Z,4.90
2019-05-28T11:54:11.187Z,6.53
2019-05-28T11:56:37.036Z,6.50
2019-05-28T11:59:02.963Z,5.90
2019-05-28T12:01:34.661Z,5.53
2019-05-28T12:03:56.682Z,6.03
2019-05-28T12:06:22.508Z,6.30
2019-05-28T12:08:48.370Z,6.00
2019-05-28T12:11:14.621Z,4.43
2019-05-28T12:13:40.467Z,6.13
2019-05-28T12:16:06.302Z,5.80
2019-05-28T12:18:32.139Z,6.20
2019-05-28T12:20:58.046Z,6.60
2019-05-28T12:23:23.909Z,7.43
2019-05-28T12:25:49.880Z,7.53
2019-05-28T12:28:15.761Z,9.23
2019-05-28T12:30:41.583Z,10.50
2019-05-28T12:33:07.434Z,9.83
2019-05-28T12:35:33.418Z,11.57
2019-05-28T12:37:59.366Z,12.00
2019-05-28T12:40:25.230Z,12.17
2019-05-28T12:42:51.093Z,12.50
2019-05-28T12:45:17.454Z,13.67
2019-05-28T12:47:43.294Z,12.70
2019-05-28T12:50:18.869Z,13.70
2019-05-28T12:52:37.366Z,15.70
2019-05-28T12:55:04.201Z,13.03
2019-05-28T12:57:30.068Z,13.40
2019-05-28T12:59:55.919Z,13.60
2019-05-28T13:02:21.879Z,14.10
2019-05-28T13:04:47.740Z,12.93
2019-05-28T13:07:13.620Z,14.50
2019-05-28T13:09:39.450Z,13.07
2019-05-28T13:12:05.315Z,13.63
2019-05-28T13:14:31.218Z,12.23
2019-05-28T13:16:57.104Z,12.70
2019-05-28T13:19:23.089Z,12.53
2019-05-28T13:21:48.936Z,11.80
2019-05-28T13:24:14.832Z,12.63
2019-05-28T13:26:40.711Z,10.83
2019-05-28T13:29:06.583Z,10.63
2019-05-28T13:31:32.743Z,10.70
2019-05-28T13:33:58.575Z,11.70
2019-05-28T13:36:24.414Z,12.63
2019-05-28T13:38:50.271Z,12.83
2019-05-28T13:41:16.163Z,13.10
2019-05-28T13:43:42.094Z,12.03
2019-05-28T13:46:07.945Z,12.77
2019-05-28T13:48:33.898Z,13.00
2019-05-28T13:50:59.803Z,12.50
2019-05-28T13:53:25.637Z,11.43
2019-05-28T13:55:51.496Z,10.20
2019-05-28T13:58:17.385Z,10.33
2019-05-28T14:00:43.447Z,9.30
2019-05-28T14:03:09.546Z,9.00
2019-05-28T14:05:35.890Z,8.70
2019-05-28T14:08:01.717Z,8.50
2019-05-28T14:10:27.560Z,8.40
2019-05-28T14:12:53.403Z,7.93
2019-05-28T14:15:20.447Z,8.13
2019-05-28T14:17:46.308Z,9.17
2019-05-28T14:20:14.395Z,7.30
2019-05-28T14:22:40.326Z,7.00
2019-05-28T14:25:07.693Z,7.80
2019-05-28T14:27:33.836Z,6.43
2019-05-28T14:29:59.693Z,9.90
2019-05-28T14:32:25.559Z,10.57
2019-05-28T14:34:52.532Z,11.43
2019-05-28T14:37:20.213Z,10.00
2019-05-28T14:39:46.058Z,9.40
2019-05-28T14:42:12.059Z,9.00
2019-05-28T14:44:42.451Z,9.70
2019-05-28T14:47:06.061Z,9.50
2019-05-28T14:49:31.914Z,9.20
2019-05-28T14:51:57.775Z,5.87
2019-05-28T14:54:23.635Z,6.37
2019-05-28T14:56:49.546Z,6.57
2019-05-28T14:59:15.382Z,5.40
2019-05-28T15:01:41.210Z,5.67
2019-05-28T15:04:07.078Z,5.40
2019-05-28T15:06:32.914Z,4.53
2019-05-28T15:08:58.771Z,3.77
2019-05-28T15:11:24.635Z,4.60
2019-05-28T15:13:50.515Z,4.27
2019-05-28T15:16:16.367Z,5.13
2019-05-28T15:18:42.237Z,4.17
2019-05-28T15:21:08.085Z,4.23
2019-05-28T15:23:33.961Z,5.33
2019-05-28T15:25:59.789Z,4.37
2019-05-28T15:28:25.629Z,4.73
2019-05-28T15:30:51.467Z,5.10
2019-05-28T15:33:17.457Z,4.30
2019-05-28T15:35:43.317Z,3.93
2019-05-28T15:38:09.170Z,4.07
2019-05-28T15:40:35.146Z,4.33
2019-05-28T15:43:06.284Z,3.60
2019-05-28T15:45:28.770Z,3.80
2019-05-28T15:47:54.626Z,3.20
2019-05-28T15:50:20.602Z,3.70
2019-05-28T15:52:46.430Z,4.20
2019-05-28T15:55:12.574Z,3.37
2019-05-28T15:57:38.440Z,3.40
2019-05-28T16:00:09.250Z,3.17
2019-05-28T16:02:35.308Z,3.33
2019-05-28T16:05:01.291Z,3.80
2019-05-28T16:07:27.318Z,3.63
2019-05-28T16:09:56.440Z,3.77
2019-05-28T16:12:20.981Z,3.37
2019-05-28T16:14:46.860Z,3.60
2019-05-28T16:17:12.694Z,4.00
2019-05-28T16:19:38.560Z,4.60
2019-05-28T16:22:04.545Z,5.33
2019-05-28T16:24:30.406Z,5.60
2019-05-28T16:26:56.243Z,6.60
2019-05-28T16:29:22.110Z,6.63
2019-05-28T16:31:47.961Z,6.00
2019-05-28T16:34:13.832Z,5.67
2019-05-28T16:36:39.755Z,5.70
2019-05-28T16:39:07.385Z,6.20
2019-05-28T16:41:33.215Z,6.00
2019-05-28T16:43:59.077Z,7.67
2019-05-28T16:46:24.995Z,6.63
2019-05-28T16:48:50.974Z,6.30
2019-05-28T16:51:16.926Z,7.73
2019-05-28T16:53:42.818Z,7.30
2019-05-28T16:56:08.845Z,7.57
2019-05-28T16:58:34.689Z,8.47
2019-05-28T17:01:20.804Z,7.43
2019-05-28T17:03:28.347Z,7.47
2019-05-28T17:05:54.205Z,7.13
2019-05-28T17:08:20.112Z,8.40
2019-05-28T17:10:48.677Z,10.37
2019-05-28T17:13:14.569Z,9.57
2019-05-28T17:15:40.721Z,9.60
2019-05-28T17:18:06.599Z,9.93
2019-05-28T17:20:32.498Z,8.57
2019-05-28T17:22:58.464Z,8.40
2019-05-28T17:25:27.421Z,10.53
2019-05-28T17:27:53.328Z,9.27
2019-05-28T17:30:24.054Z,10.17
2019-05-28T17:32:47.522Z,10.50
2019-05-28T17:35:13.510Z,10.13
2019-05-28T17:37:39.390Z,9.57
2019-05-28T17:40:06.130Z,9.40
2019-05-28T17:42:32.219Z,9.27
2019-05-28T17:44:58.093Z,9.77
2019-05-28T17:47:24.450Z,8.67
2019-05-28T17:49:50.374Z,10.23
2019-05-28T17:52:22.133Z,9.00
2019-05-28T17:54:48.263Z,8.70
2019-05-28T17:57:14.610Z,9.10
2019-05-28T17:59:40.785Z,8.47
2019-05-28T18:02:06.759Z,9.13
2019-05-28T18:04:32.901Z,8.37
2019-05-28T18:06:58.891Z,8.33
2019-05-28T18:09:24.768Z,6.90
2019-05-28T18:11:50.741Z,7.77
2019-05-28T18:14:16.614Z,7.10
2019-05-28T18:16:42.489Z,8.00
2019-05-28T18:19:08.344Z,8.50
2019-05-28T18:21:34.188Z,8.77
2019-05-28T18:24:00.230Z,6.80
2019-05-28T18:26:26.161Z,9.13
2019-05-28T18:28:52.033Z,9.10
2019-05-28T18:31:17.976Z,9.13
2019-05-28T18:33:44.270Z,9.50
2019-05-28T18:36:10.263Z,9.20
2019-05-28T18:38:43.468Z,8.83
2019-05-28T18:41:20.603Z,7.90
2019-05-28T18:43:32.443Z,9.30
2019-05-28T18:45:58.441Z,9.63
2019-05-28T18:48:24.337Z,9.70
2019-05-28T18:50:50.213Z,9.40
2019-05-28T18:53:16.068Z,8.20
2019-05-28T18:55:43.461Z,10.40
2019-05-28T18:58:09.875Z,10.07
2019-05-28T19:00:36.500Z,9.20
2019-05-28T19:03:02.360Z,9.17
2019-05-28T19:05:28.363Z,8.70
2019-05-28T19:07:54.203Z,9.00
2019-05-28T19:10:20.165Z,9.10
2019-05-28T19:12:46.040Z,9.50
2019-05-28T19:15:12.308Z,8.80
2019-05-28T19:17:38.234Z,8.50
2019-05-28T19:20:05.281Z,8.37
2019-05-28T19:22:31.155Z,7.77
2019-05-28T19:24:57.453Z,8.40
2019-05-28T19:27:23.556Z,7.67
2019-05-28T19:29:50.707Z,8.00
2019-05-28T19:32:16.946Z,8.30
2019-05-28T19:34:42.901Z,8.80
2019-05-28T19:37:09.486Z,9.03
2019-05-28T19:39:35.450Z,8.50
2019-05-28T19:42:01.358Z,7.90
2019-05-28T19:44:27.226Z,7.03
2019-05-28T19:46:53.096Z,10.23
2019-05-28T19:49:18.977Z,8.23
2019-05-28T19:51:44.863Z,8.40
2019-05-28T19:54:11.580Z,9.67
2019-05-28T19:56:37.485Z,9.23
2019-05-28T19:59:03.457Z,8.03
2019-05-28T20:01:30.179Z,9.23
2019-05-28T20:03:56.129Z,9.30
2019-05-28T20:06:22.021Z,8.50
2019-05-28T20:08:47.870Z,9.33
2019-05-28T20:11:13.727Z,10.27
2019-05-28T20:13:39.870Z,9.20
2019-05-28T20:16:05.825Z,10.60
2019-05-28T20:18:31.692Z,9.10
2019-05-28T20:20:57.968Z,9.43
2019-05-28T20:23:23.794Z,9.40
2019-05-28T20:25:51.551Z,9.50
2019-05-28T20:28:17.759Z,9.37
2019-05-28T20:30:43.583Z,9.20
2019-05-28T20:33:09.481Z,8.97
2019-05-28T20:35:35.700Z,9.53
2019-05-28T20:38:05.763Z,9.97
2019-05-28T20:40:29.442Z,11.03
2019-05-28T20:42:55.313Z,8.00
2019-05-28T20:45:21.246Z,10.00
2019-05-28T20:47:47.134Z,10.17
2019-05-28T20:50:14.121Z,9.80
2019-05-28T20:52:40.005Z,11.30
2019-05-28T20:55:06.047Z,11.40
2019-05-28T20:57:31.896Z,10.40
2019-05-28T20:59:57.907Z,10.03
2019-05-28T21:02:23.914Z,10.50
2019-05-28T21:04:52.415Z,11.60
2019-05-28T21:07:18.404Z,10.80
2019-05-28T21:09:44.496Z,11.30
2019-05-28T21:12:10.336Z,11.00
2019-05-28T21:14:36.543Z,11.30
2019-05-28T21:17:02.570Z,11.13
2019-05-28T21:19:28.453Z,12.50
2019-05-28T21:21:55.643Z,10.80
2019-05-28T21:24:21.651Z,11.00
2019-05-28T21:26:47.522Z,10.17
2019-05-28T21:29:13.359Z,12.03
2019-05-28T21:31:39.214Z,12.93
2019-05-28T21:34:05.070Z,11.53
2019-05-28T21:36:30.977Z,12.47
2019-05-28T21:38:57.412Z,12.70
2019-05-28T21:41:23.656Z,11.90
2019-05-28T21:43:49.790Z,12.13
2019-05-28T21:46:15.635Z,14.03
2019-05-28T21:48:41.498Z,12.07
2019-05-28T21:51:07.347Z,11.30
2019-05-28T21:53:33.195Z,12.30
2019-05-28T21:55:59.339Z,13.90
2019-05-28T21:58:25.279Z,11.67
2019-05-28T22:01:02.119Z,12.60
2019-05-28T22:03:28.023Z,12.47
2019-05-28T22:05:55.185Z,13.20
2019-05-28T22:08:21.425Z,13.00
2019-05-28T22:10:47.284Z,12.07
2019-05-28T22:13:21.884Z,12.17
2019-05-28T22:15:40.960Z,13.20
2019-05-28T22:18:06.820Z,13.27
2019-05-28T22:20:32.676Z,12.17
2019-05-28T22:22:58.542Z,13.00
2019-05-28T22:25:24.362Z,12.10
2019-05-28T22:27:50.214Z,11.10
2019-05-28T22:30:16.356Z,12.50
2019-05-28T22:32:42.235Z,11.43
2019-05-28T22:35:08.393Z,12.43
2019-05-28T22:37:34.247Z,11.57
2019-05-28T22:40:01.351Z,11.63
2019-05-28T22:42:27.354Z,10.90
2019-05-28T22:44:53.332Z,12.47
2019-05-28T22:47:19.239Z,10.53
2019-05-28T22:49:45.053Z,12.17
2019-05-28T22:52:10.912Z,12.97
2019-05-28T22:54:36.758Z,12.20
2019-05-28T22:57:04.068Z,12.40
2019-05-28T22:59:30.495Z,12.20
2019-05-28T23:01:56.352Z,12.13
2019-05-28T23:04:22.183Z,13.17
2019-05-28T23:06:48.054Z,11.43
2019-05-28T23:09:13.900Z,12.50
2019-05-28T23:11:39.759Z,13.03
2019-05-28T23:14:06.101Z,12.23
2019-05-28T23:16:32.061Z,11.60
2019-05-28T23:18:57.903Z,12.37
2019-05-28T23:21:23.741Z,12.50
2019-05-28T23:23:49.574Z,11.27
2019-05-28T23:26:15.463Z,12.43
2019-05-28T23:28:41.316Z,12.87
2019-05-28T23:31:07.977Z,11.17
2019-05-28T23:33:33.960Z,11.80
2019-05-28T23:35:59.778Z,12.13
2019-05-28T23:38:25.623Z,10.83
2019-05-28T23:40:51.482Z,11.20
2019-05-28T23:43:17.324Z,11.33
2019-05-28T23:45:43.173Z,11.00
2019-05-28T23:48:14.954Z,11.10
2019-05-28T23:50:36.789Z,11.67
2019-05-28T23:53:02.661Z,10.80
2019-05-28T23:55:28.617Z,11.63
2019-05-28T23:57:54.481Z,11.30
